San Antonio International Airport
KSAT : now visible

Airfield :











YOU CAN JOIN US ON...

 
LOGIN :

Register | Disclaimer

   EN    FR    IT 

 









Legend :    VFR   Marginal VFR   IFR   Intensive IFR   Very Intensive IFR
Visi :
Ceiling :
>= 8 km
>= 3000ft
5 to 8 km
1000 to 3000 ft
1500m to 5 km
500 to 1000 ft
800 to 1500m
200 to 500 ft
< 800m
< 200 ft
Symbols :   Thunderstorms  Fog  Heavy snow  Heavy precipitations  Wind > 20 kt






- Airport Elevation : 809 ft
- IATA code : SAT


KSAT - San Antonio International

CURRENT METAR :
  • 110551Z 16013G19KT 10SM FEW060 28/22 A3000 RMK AO2 SLP137 T02780222 10361 20278 403780261 51012

EXPIRED METARs :
  • 110451Z 16011KT 10SM FEW060 29/22 A2999 RMK AO2 PK WND 16026/0412 SLP135 T02890217
  • 110351Z 15011G22KT 10SM FEW060 31/21 A2998 RMK AO2 PK WND 15026/0321 SLP130 T03060206

TAF KSAT
Valid from the 11 at 06:00 until the 12 at 12:00 UTC


110540Z 1106/1212 16010KT P6SM FEW015
FM110800 17009KT P6SM BKN015
FM111600 17012G22KT P6SM SCT040
FM112300 14015G25KT P6SM FEW060
FM120500 16010KT P6SM FEW060
FM120800 17008KT P6SM BKN015
KZHU FIR / North America



MET'MAP, your aeronautical weather chart ! - Copyright ORBIFLY December 2007 - Disclaimer

ORBIFLY MET'MAP TEAM :

Programming & Development : Alexandra Zaïnal
Concept & original design : Baudouin d'Aumeries
Assistance for programming : Marc-Olivier Méhu
Technical & hardware support : Manuel Goepfert

Contact : metmap@orbifly.com




SOURCES & CREDITS :

   NOAA       Earth
Advisory